Weather at Madonna di Loreto Airfield

Public forecast

Using degrees Celsius for public forecast. Weather courtesy of forecast.io.

Closest aviation weather report (METAR) to Madonna di Loreto Airfield

Closest report is Marche Airport, 14.0 nm (25.9 km) NW.

2024/05/25 17:20 (retrieved 25 minutes ago)

LIPY 251720Z AUTO 29004KT 210V320 9999 OVC130/// 19/13 Q1016

Closest aviation forecast (TAF) to Madonna di Loreto Airfield

Closest forecast is Marche Airport, 14.0 nm (25.9 km) NW.

2024/05/25 12:21 (retrieved 5 hours ago)

TAF LIPY 251100Z 2512/2612 06010KT 9999 SCT040 TEMPO 2512/2518 4000 TSRA BECMG 2515/2517 34008KT